Time;durP1;ratioP1;P1;durP2;ratioP2;P2;SDS_P1;SDS_P2;PMS_P1;PMS_P2;Temp;Humidity;BMP_temperature;BMP_pressure;BME280_temperature;BME280_humidity;BME280_pressure;Samples;Min_cycle;Max_cycle;Signal;HPM_P1;HPM_P2
2022/03/21 00:00:22;;;;;;;17.60;15.77;;;;;;;;;;5048525;28;20873;-77
2022/03/21 00:02:49;;;;;;;16.67;14.97;;;;;;;;;;5049079;28;20730;-77
2022/03/21 00:05:16;;;;;;;19.07;15.83;;;;;;;;;;5049260;28;20499;-77
2022/03/21 00:07:45;;;;;;;17.77;15.87;;;;;;;;;;5049534;28;20468;-77
2022/03/21 00:10:12;;;;;;;16.57;15.00;;;;;;;;;;5049115;28;20808;-76
2022/03/21 00:12:40;;;;;;;22.37;15.13;;;;;;;;;;5049095;28;20507;-77
2022/03/21 00:15:09;;;;;;;17.17;15.37;;;;;;;;;;5050857;28;20445;-77
2022/03/21 00:17:37;;;;;;;18.70;15.90;;;;;;;;;;5052745;28;20449;-76
2022/03/21 00:20:04;;;;;;;18.37;16.53;;;;;;;;;;5053083;28;20450;-78
2022/03/21 00:22:32;;;;;;;18.20;16.33;;;;;;;;;;5052862;28;20465;-77
2022/03/21 00:25:01;;;;;;;17.40;15.60;;;;;;;;;;5052879;28;20511;-77
2022/03/21 00:27:28;;;;;;;18.20;15.67;;;;;;;;;;5053058;28;20445;-78
2022/03/21 00:29:55;;;;;;;18.80;16.80;;;;;;;;;;5052501;28;20451;-77
2022/03/21 00:32:22;;;;;;;19.30;16.33;;;;;;;;;;5053120;28;20485;-78
2022/03/21 00:34:49;;;;;;;18.17;15.20;;;;;;;;;;5052509;28;20457;-76
2022/03/21 00:37:16;;;;;;;19.53;16.23;;;;;;;;;;5052516;28;20450;-76
2022/03/21 00:39:43;;;;;;;17.30;15.00;;;;;;;;;;5052378;28;20461;-77
2022/03/21 00:42:11;;;;;;;18.50;16.47;;;;;;;;;;5052509;28;20441;-78
2022/03/21 00:44:38;;;;;;;19.63;16.50;;;;;;;;;;5052591;28;20841;-77
2022/03/21 00:47:06;;;;;;;17.87;16.27;;;;;;;;;;5052184;28;20449;-77
2022/03/21 00:49:33;;;;;;;17.40;15.70;;;;;;;;;;5052316;28;20446;-77
2022/03/21 00:52:00;;;;;;;18.83;15.00;;;;;;;;;;5051981;28;20564;-77
2022/03/21 00:54:27;;;;;;;18.17;16.37;;;;;;;;;;5052053;28;20590;-77
2022/03/21 00:56:54;;;;;;;18.27;16.20;;;;;;;;;;5051897;28;20446;-78
2022/03/21 00:59:23;;;;;;;21.03;16.93;;;;;;;;;;5051860;28;20529;-78
2022/03/21 01:01:50;;;;;;;18.60;15.40;;;;;;;;;;5052138;28;20876;-76
2022/03/21 01:04:17;;;;;;;18.40;15.60;;;;;;;;;;5052045;28;20531;-79
2022/03/21 01:06:44;;;;;;;19.63;17.40;;;;;;;;;;5051948;28;20549;-76
2022/03/21 01:09:14;;;;;;;19.47;15.90;;;;;;;;;;5051838;28;20945;-77
2022/03/21 01:11:43;;;;;;;19.97;16.93;;;;;;;;;;5052140;28;20458;-77
2022/03/21 01:14:10;;;;;;;20.60;16.57;;;;;;;;;;5051637;28;20498;-77
2022/03/21 01:16:38;;;;;;;17.77;15.87;;;;;;;;;;5052108;28;20438;-77
2022/03/21 01:19:06;;;;;;;17.67;15.77;;;;;;;;;;5051306;28;20472;-78
2022/03/21 01:21:33;;;;;;;18.70;15.53;;;;;;;;;;5051780;28;20553;-77
2022/03/21 01:24:01;;;;;;;17.10;15.03;;;;;;;;;;5051262;28;20791;-77
2022/03/21 01:26:28;;;;;;;16.30;14.30;;;;;;;;;;5051166;28;20463;-77
2022/03/21 01:28:56;;;;;;;17.70;15.27;;;;;;;;;;5051742;28;20857;-77
2022/03/21 01:31:23;;;;;;;17.07;15.37;;;;;;;;;;5051300;28;20907;-77
2022/03/21 01:33:53;;;;;;;17.57;15.70;;;;;;;;;;5051127;28;21020;-77
2022/03/21 01:36:20;;;;;;;18.00;15.40;;;;;;;;;;5072201;28;20436;-77
2022/03/21 01:38:47;;;;;;;18.13;16.20;;;;;;;;;;5072112;28;20457;-76
2022/03/21 01:41:14;;;;;;;20.67;15.03;;;;;;;;;;5071471;28;20455;-77
2022/03/21 01:44:01;;;;;;;17.70;15.80;;;;;;;;;;5070790;28;20469;-77
2022/03/21 01:46:28;;;;;;;17.97;15.90;;;;;;;;;;5072197;28;20448;-77
2022/03/21 01:48:57;;;;;;;17.97;15.93;;;;;;;;;;5070996;28;20425;-78
2022/03/21 01:51:24;;;;;;;17.90;16.00;;;;;;;;;;5071712;28;20527;-76
2022/03/21 01:56:38;;;;;;;17.03;15.23;;;;;;;;;;5068481;28;20403;-76
2022/03/21 01:59:05;;;;;;;19.67;16.60;;;;;;;;;;5067135;28;20473;-77
2022/03/21 02:01:32;;;;;;;17.03;15.20;;;;;;;;;;5072096;28;20952;-77
2022/03/21 02:04:00;;;;;;;18.10;15.93;;;;;;;;;;5074081;28;20504;-78
2022/03/21 02:06:28;;;;;;;18.13;16.13;;;;;;;;;;5073901;28;20776;-77
2022/03/21 02:08:56;;;;;;;17.17;15.30;;;;;;;;;;5072808;28;20446;-77
2022/03/21 02:11:24;;;;;;;18.43;16.53;;;;;;;;;;5070253;28;20480;-77
2022/03/21 02:13:51;;;;;;;18.20;16.00;;;;;;;;;;5073709;28;20529;-77
2022/03/21 02:16:18;;;;;;;17.23;15.13;;;;;;;;;;5074685;28;20422;-77
2022/03/21 02:18:46;;;;;;;17.03;15.23;;;;;;;;;;5068388;28;20448;-77
2022/03/21 02:21:18;;;;;;;16.63;14.90;;;;;;;;;;5074560;28;20436;-77
2022/03/21 02:23:49;;;;;;;20.80;15.47;;;;;;;;;;5069169;28;20468;-76
2022/03/21 02:26:18;;;;;;;17.50;15.63;;;;;;;;;;5067210;28;20511;-77
2022/03/21 02:28:46;;;;;;;20.50;16.43;;;;;;;;;;5062603;28;20456;-76
2022/03/21 02:31:13;;;;;;;19.60;17.00;;;;;;;;;;5068420;28;20478;-77
2022/03/21 02:33:40;;;;;;;18.57;16.43;;;;;;;;;;5068400;28;20552;-77
2022/03/21 02:36:08;;;;;;;16.70;14.90;;;;;;;;;;5062819;28;20444;-77
2022/03/21 02:38:36;;;;;;;18.10;16.20;;;;;;;;;;5063481;28;20460;-78
2022/03/21 02:41:04;;;;;;;19.53;17.40;;;;;;;;;;5066075;28;20424;-78
2022/03/21 02:43:32;;;;;;;17.97;15.47;;;;;;;;;;5065807;28;20494;-77
2022/03/21 02:46:06;;;;;;;17.03;15.27;;;;;;;;;;5067934;28;20441;-77
2022/03/21 02:48:33;;;;;;;19.13;15.60;;;;;;;;;;5070897;28;20429;-76
2022/03/21 02:51:02;;;;;;;17.13;15.43;;;;;;;;;;5072431;28;20441;-76
2022/03/21 02:53:29;;;;;;;17.70;15.80;;;;;;;;;;5069275;28;20469;-78
2022/03/21 02:55:57;;;;;;;16.80;15.03;;;;;;;;;;5069601;28;20516;-76
2022/03/21 02:58:24;;;;;;;19.40;15.93;;;;;;;;;;5068125;28;20528;-76
2022/03/21 03:00:53;;;;;;;16.30;14.60;;;;;;;;;;5065948;28;20513;-76
2022/03/21 03:03:20;;;;;;;19.43;15.17;;;;;;;;;;5069912;28;20441;-77
2022/03/21 03:05:47;;;;;;;18.40;16.03;;;;;;;;;;5061842;28;20457;-77
2022/03/21 03:08:14;;;;;;;17.13;14.63;;;;;;;;;;5060619;28;20439;-76
2022/03/21 03:10:41;;;;;;;17.47;15.53;;;;;;;;;;5051012;28;20444;-76
2022/03/21 03:13:09;;;;;;;17.93;16.07;;;;;;;;;;5051336;28;20485;-77
2022/03/21 03:15:36;;;;;;;15.80;14.20;;;;;;;;;;5051068;28;20541;-77
2022/03/21 03:18:04;;;;;;;16.60;14.60;;;;;;;;;;5049697;28;20874;-78
2022/03/21 03:20:31;;;;;;;18.57;15.80;;;;;;;;;;5049532;28;20473;-76
2022/03/21 03:23:00;;;;;;;16.57;14.87;;;;;;;;;;5049016;28;20466;-77
2022/03/21 03:25:27;;;;;;;20.50;16.00;;;;;;;;;;5049471;28;20487;-77
2022/03/21 03:27:54;;;;;;;18.60;16.07;;;;;;;;;;5049913;28;20508;-77
2022/03/21 03:30:21;;;;;;;17.20;15.10;;;;;;;;;;5049569;28;20448;-76
2022/03/21 03:32:50;;;;;;;17.17;15.17;;;;;;;;;;5049050;28;20498;-77
2022/03/21 03:35:19;;;;;;;19.87;16.17;;;;;;;;;;5049528;28;20504;-77
2022/03/21 03:37:46;;;;;;;16.47;14.77;;;;;;;;;;5049668;28;20519;-76
2022/03/21 03:40:14;;;;;;;17.60;15.37;;;;;;;;;;5049538;28;20486;-78
2022/03/21 03:42:41;;;;;;;16.90;14.70;;;;;;;;;;5048948;28;20529;-77
2022/03/21 03:45:08;;;;;;;17.90;15.23;;;;;;;;;;5049412;28;20505;-77
2022/03/21 03:47:35;;;;;;;18.27;15.73;;;;;;;;;;5049441;28;20493;-76
2022/03/21 03:50:02;;;;;;;17.80;15.67;;;;;;;;;;5059973;28;20502;-76
2022/03/21 03:52:31;;;;;;;18.13;16.30;;;;;;;;;;5065242;28;20492;-76
2022/03/21 03:54:58;;;;;;;20.83;16.27;;;;;;;;;;5071132;28;20455;-76
2022/03/21 03:57:25;;;;;;;17.43;15.53;;;;;;;;;;5070052;28;20445;-78
2022/03/21 03:59:52;;;;;;;19.57;16.30;;;;;;;;;;5053663;28;20450;-77
2022/03/21 04:02:19;;;;;;;17.53;15.43;;;;;;;;;;5053651;28;20439;-76
2022/03/21 04:04:45;;;;;;;17.83;15.53;;;;;;;;;;5057746;28;20510;-76
2022/03/21 04:07:12;;;;;;;17.10;14.70;;;;;;;;;;5058823;28;20453;-76
2022/03/21 04:09:40;;;;;;;18.37;16.47;;;;;;;;;;5059473;28;20444;-76
2022/03/21 04:12:08;;;;;;;18.30;15.40;;;;;;;;;;5053112;28;20494;-77
2022/03/21 04:14:35;;;;;;;17.90;15.50;;;;;;;;;;5052925;28;20529;-77
2022/03/21 04:17:02;;;;;;;17.47;15.50;;;;;;;;;;5053536;28;20841;-76
2022/03/21 04:19:29;;;;;;;18.20;15.33;;;;;;;;;;5053715;28;20455;-76
2022/03/21 04:21:56;;;;;;;18.33;15.93;;;;;;;;;;5053696;28;20448;-77
2022/03/21 04:24:23;;;;;;;19.30;16.47;;;;;;;;;;5052779;28;20967;-77
2022/03/21 04:26:51;;;;;;;16.03;14.33;;;;;;;;;;5053115;28;20497;-77
2022/03/21 04:29:19;;;;;;;20.10;16.33;;;;;;;;;;5053229;28;20763;-76
2022/03/21 04:31:46;;;;;;;18.90;15.77;;;;;;;;;;5053018;28;20809;-76
2022/03/21 04:34:13;;;;;;;17.53;15.73;;;;;;;;;;5052727;28;20481;-77
2022/03/21 04:36:42;;;;;;;17.40;14.70;;;;;;;;;;5053020;28;20445;-77
2022/03/21 04:39:09;;;;;;;18.80;15.30;;;;;;;;;;5052904;28;20505;-76
2022/03/21 04:41:36;;;;;;;16.67;14.93;;;;;;;;;;5053221;28;20685;-76
2022/03/21 04:44:05;;;;;;;17.40;15.60;;;;;;;;;;5052834;28;20833;-78
2022/03/21 04:46:32;;;;;;;17.17;14.90;;;;;;;;;;5052619;28;20500;-77
2022/03/21 04:48:59;;;;;;;18.20;14.90;;;;;;;;;;5052622;28;20439;-77
2022/03/21 04:51:26;;;;;;;18.33;16.10;;;;;;;;;;5052778;28;20440;-77
2022/03/21 04:53:53;;;;;;;21.17;16.47;;;;;;;;;;5052220;28;20497;-77
2022/03/21 04:56:20;;;;;;;18.43;16.23;;;;;;;;;;5052662;28;20815;-76
2022/03/21 04:58:47;;;;;;;19.60;16.77;;;;;;;;;;5052820;28;20451;-75
2022/03/21 05:01:16;;;;;;;18.80;16.00;;;;;;;;;;5052224;28;20550;-77
2022/03/21 05:03:44;;;;;;;18.13;15.97;;;;;;;;;;5053635;28;20489;-77
2022/03/21 05:06:12;;;;;;;18.30;16.27;;;;;;;;;;5054583;28;20450;-77
2022/03/21 05:08:39;;;;;;;20.47;16.77;;;;;;;;;;5054153;28;20956;-76
2022/03/21 05:11:07;;;;;;;20.80;16.70;;;;;;;;;;5052170;28;20495;-77
2022/03/21 05:13:34;;;;;;;18.37;15.43;;;;;;;;;;5051813;28;20531;-77
2022/03/21 05:16:00;;;;;;;18.83;15.00;;;;;;;;;;5052680;28;20684;-77
2022/03/21 05:18:29;;;;;;;18.33;16.33;;;;;;;;;;5056170;28;20439;-77
2022/03/21 05:20:56;;;;;;;19.83;16.67;;;;;;;;;;5054943;28;20449;-77
2022/03/21 05:31:37;;;;;;;22.00;15.93;;;;;;;;;;5049293;28;20953;-77
2022/03/21 05:36:51;;;;;;;17.70;15.80;;;;;;;;;;5063570;28;20447;-76
2022/03/21 05:39:18;;;;;;;21.47;15.73;;;;;;;;;;5064482;28;20482;-75
2022/03/21 05:41:45;;;;;;;19.63;17.27;;;;;;;;;;5072492;28;20527;-76
2022/03/21 05:44:12;;;;;;;20.77;16.10;;;;;;;;;;5054964;28;20478;-76
2022/03/21 05:46:39;;;;;;;18.23;16.20;;;;;;;;;;5058464;28;20518;-76
2022/03/21 05:49:07;;;;;;;21.90;16.60;;;;;;;;;;5057412;28;20869;-77
2022/03/21 05:51:35;;;;;;;21.40;16.30;;;;;;;;;;5053406;28;20644;-75
2022/03/21 05:54:02;;;;;;;18.63;15.77;;;;;;;;;;5054344;28;20524;-77
2022/03/21 05:56:30;;;;;;;18.17;15.10;;;;;;;;;;5053518;28;20503;-77
2022/03/21 05:59:00;;;;;;;19.77;16.00;;;;;;;;;;5051926;28;20493;-76
2022/03/21 06:01:27;;;;;;;16.87;14.60;;;;;;;;;;5051263;28;20453;-77
2022/03/21 06:03:55;;;;;;;18.03;15.17;;;;;;;;;;5050714;28;21030;-76
2022/03/21 06:06:24;;;;;;;18.40;15.50;;;;;;;;;;5050975;28;20472;-78
2022/03/21 06:08:52;;;;;;;21.50;16.33;;;;;;;;;;5052724;28;20453;-76
2022/03/21 06:11:20;;;;;;;23.50;16.30;;;;;;;;;;5051832;28;20971;-77
2022/03/21 06:13:47;;;;;;;20.73;16.90;;;;;;;;;;5050030;28;20486;-76
2022/03/21 06:16:15;;;;;;;19.27;15.83;;;;;;;;;;5051021;28;20625;-78
2022/03/21 06:18:42;;;;;;;19.83;14.70;;;;;;;;;;5050882;28;20438;-77
2022/03/21 06:21:10;;;;;;;21.37;16.53;;;;;;;;;;5050822;28;20453;-76
2022/03/21 06:23:38;;;;;;;20.70;15.47;;;;;;;;;;5050225;28;20978;-78
2022/03/21 06:26:05;;;;;;;21.93;16.90;;;;;;;;;;5050656;28;20449;-77
2022/03/21 06:28:33;;;;;;;21.63;15.73;;;;;;;;;;5050402;28;20450;-78
2022/03/21 06:31:00;;;;;;;18.47;16.37;;;;;;;;;;5048221;28;20450;-77
2022/03/21 06:33:28;;;;;;;16.47;14.10;;;;;;;;;;5050326;28;20803;-76
2022/03/21 06:35:56;;;;;;;20.17;16.03;;;;;;;;;;5050190;28;20515;-77
2022/03/21 06:38:23;;;;;;;21.97;16.37;;;;;;;;;;5050256;28;20439;-77
2022/03/21 06:40:52;;;;;;;19.33;16.03;;;;;;;;;;5050305;28;20447;-77
2022/03/21 06:43:20;;;;;;;21.77;16.50;;;;;;;;;;5050390;28;20467;-77
2022/03/21 06:45:50;;;;;;;18.90;15.57;;;;;;;;;;5050082;28;20460;-76
2022/03/21 06:48:17;;;;;;;19.10;15.13;;;;;;;;;;5050027;28;20446;-77
2022/03/21 06:50:46;;;;;;;18.80;15.73;;;;;;;;;;5049793;28;20993;-77
2022/03/21 06:53:13;;;;;;;30.23;18.10;;;;;;;;;;5053338;28;20487;-78
2022/03/21 06:55:40;;;;;;;24.27;16.00;;;;;;;;;;5053873;28;20515;-77
2022/03/21 06:58:11;;;;;;;21.73;15.33;;;;;;;;;;5056380;28;20861;-77
2022/03/21 07:00:39;;;;;;;22.77;15.70;;;;;;;;;;5059402;28;20488;-76
2022/03/21 07:03:06;;;;;;;23.83;15.90;;;;;;;;;;5069985;28;20552;-78
2022/03/21 07:05:33;;;;;;;19.93;16.40;;;;;;;;;;5060122;28;20437;-78
2022/03/21 07:08:00;;;;;;;18.73;16.50;;;;;;;;;;5050138;28;20469;-77
2022/03/21 07:10:27;;;;;;;16.70;15.00;;;;;;;;;;5050165;28;20507;-76
2022/03/21 07:12:54;;;;;;;21.20;15.33;;;;;;;;;;5043579;28;20473;-76
2022/03/21 07:15:23;;;;;;;18.60;16.57;;;;;;;;;;5049876;28;20455;-79
2022/03/21 07:17:51;;;;;;;18.83;15.23;;;;;;;;;;5050331;28;20449;-78
2022/03/21 07:20:20;;;;;;;21.27;16.30;;;;;;;;;;5049807;28;20464;-78
2022/03/21 07:22:47;;;;;;;20.43;16.27;;;;;;;;;;5049952;28;20469;-79
2022/03/21 07:25:14;;;;;;;18.27;16.37;;;;;;;;;;5050285;28;20535;-77
2022/03/21 07:27:45;;;;;;;19.30;16.53;;;;;;;;;;5050183;28;20452;-77
2022/03/21 07:30:13;;;;;;;20.70;16.20;;;;;;;;;;5050089;28;20875;-77
2022/03/21 07:32:42;;;;;;;19.10;16.77;;;;;;;;;;5049612;28;20554;-77
2022/03/21 07:35:09;;;;;;;19.10;15.87;;;;;;;;;;5050012;28;20868;-78
2022/03/21 07:37:40;;;;;;;21.43;17.10;;;;;;;;;;5049974;28;20499;-78
2022/03/21 07:40:08;;;;;;;21.73;16.57;;;;;;;;;;5049858;28;20452;-77
2022/03/21 07:42:35;;;;;;;20.60;16.00;;;;;;;;;;5049442;28;20468;-78
2022/03/21 07:47:48;;;;;;;23.60;15.70;;;;;;;;;;5049429;28;20401;-76
2022/03/21 07:50:15;;;;;;;21.63;16.60;;;;;;;;;;5048730;28;20472;-78
2022/03/21 07:52:42;;;;;;;22.57;16.03;;;;;;;;;;5048952;28;20457;-78
2022/03/21 07:55:09;;;;;;;17.57;15.67;;;;;;;;;;5049262;28;20458;-78
2022/03/21 07:57:36;;;;;;;18.17;15.80;;;;;;;;;;5049461;28;20491;-78
2022/03/21 08:00:05;;;;;;;18.73;16.73;;;;;;;;;;5043720;28;20456;-79
2022/03/21 08:02:33;;;;;;;18.10;16.30;;;;;;;;;;5049212;28;20820;-78
2022/03/21 08:05:01;;;;;;;17.37;15.57;;;;;;;;;;5049315;28;20457;-76
2022/03/21 08:07:28;;;;;;;16.97;15.23;;;;;;;;;;5031177;28;20469;-78
2022/03/21 08:09:55;;;;;;;17.50;15.60;;;;;;;;;;5065323;28;20495;-76
2022/03/21 08:12:23;;;;;;;17.53;15.43;;;;;;;;;;5049432;28;20466;-77
2022/03/21 08:14:51;;;;;;;18.50;16.50;;;;;;;;;;5048733;28;20488;-77
2022/03/21 08:17:19;;;;;;;18.00;15.43;;;;;;;;;;5049867;28;20533;-79
2022/03/21 08:19:46;;;;;;;18.57;16.47;;;;;;;;;;5048750;28;20465;-79
2022/03/21 08:22:15;;;;;;;19.77;16.03;;;;;;;;;;5045622;28;20918;-77
2022/03/21 08:24:42;;;;;;;18.50;16.60;;;;;;;;;;5042381;28;20464;-77
2022/03/21 08:27:09;;;;;;;19.47;15.97;;;;;;;;;;5047805;28;20480;-77
2022/03/21 08:29:36;;;;;;;17.80;15.90;;;;;;;;;;5048845;28;20446;-77
2022/03/21 08:32:03;;;;;;;17.60;15.70;;;;;;;;;;5032046;28;20442;-78
2022/03/21 08:34:30;;;;;;;18.10;16.20;;;;;;;;;;5056743;28;20480;-78
2022/03/21 08:36:58;;;;;;;18.07;16.33;;;;;;;;;;5051553;28;20975;-76
2022/03/21 08:39:26;;;;;;;20.17;16.70;;;;;;;;;;5047844;28;20474;-77
2022/03/21 08:41:53;;;;;;;19.30;17.23;;;;;;;;;;5055554;28;20763;-76
2022/03/21 08:44:20;;;;;;;18.00;16.10;;;;;;;;;;5050261;28;20895;-76
2022/03/21 08:46:48;;;;;;;17.73;15.93;;;;;;;;;;5048809;28;20485;-78
2022/03/21 08:49:24;;;;;;;17.90;15.00;;;;;;;;;;5050170;28;20805;-77
2022/03/21 08:51:51;;;;;;;18.13;15.90;;;;;;;;;;5044929;28;20485;-77
2022/03/21 08:54:18;;;;;;;19.20;17.13;;;;;;;;;;5048142;28;20486;-80
2022/03/21 08:56:47;;;;;;;19.77;15.67;;;;;;;;;;5060356;28;20453;-79
2022/03/21 08:59:14;;;;;;;17.60;15.90;;;;;;;;;;5051472;28;21012;-78
2022/03/21 09:01:42;;;;;;;17.40;15.57;;;;;;;;;;5058737;28;20437;-78
2022/03/21 09:04:09;;;;;;;20.13;16.87;;;;;;;;;;5051622;28;20453;-79
2022/03/21 09:06:37;;;;;;;18.20;16.43;;;;;;;;;;5052437;28;20801;-78
2022/03/21 09:09:04;;;;;;;18.83;16.93;;;;;;;;;;5051960;28;20463;-77
2022/03/21 09:11:31;;;;;;;18.37;16.50;;;;;;;;;;5051498;28;20453;-78
2022/03/21 09:13:59;;;;;;;18.57;16.77;;;;;;;;;;5044512;28;20481;-79
2022/03/21 09:16:26;;;;;;;19.93;17.80;;;;;;;;;;5051854;28;20452;-78
2022/03/21 09:18:53;;;;;;;22.20;17.53;;;;;;;;;;5049792;28;20477;-77
2022/03/21 09:21:21;;;;;;;18.57;16.57;;;;;;;;;;5051804;28;20461;-82
2022/03/21 09:23:48;;;;;;;19.27;17.27;;;;;;;;;;5049097;28;20475;-80
2022/03/21 09:26:16;;;;;;;25.30;18.07;;;;;;;;;;5071384;28;20498;-79
2022/03/21 09:28:43;;;;;;;20.23;16.60;;;;;;;;;;5055560;28;21003;-81
2022/03/21 09:31:13;;;;;;;19.33;17.43;;;;;;;;;;5053797;28;21006;-83
2022/03/21 09:33:41;;;;;;;19.50;17.40;;;;;;;;;;5053338;28;20469;-80
2022/03/21 09:36:08;;;;;;;18.47;16.43;;;;;;;;;;5058619;28;20535;-79
2022/03/21 09:38:37;;;;;;;22.70;17.83;;;;;;;;;;5061966;28;20456;-79
2022/03/21 09:41:04;;;;;;;20.40;18.03;;;;;;;;;;5054601;28;20457;-80
2022/03/21 09:43:32;;;;;;;20.60;17.77;;;;;;;;;;5053494;28;20457;-82
2022/03/21 09:45:59;;;;;;;19.40;17.30;;;;;;;;;;5054109;28;20449;-80
2022/03/21 09:48:28;;;;;;;19.60;17.60;;;;;;;;;;5053147;28;20995;-80
2022/03/21 09:50:56;;;;;;;18.70;16.70;;;;;;;;;;5061645;28;20816;-80
2022/03/21 09:53:24;;;;;;;21.03;19.03;;;;;;;;;;5053760;28;20505;-80
2022/03/21 09:55:51;;;;;;;19.40;17.50;;;;;;;;;;5054528;28;20448;-80
2022/03/21 09:58:20;;;;;;;18.60;16.70;;;;;;;;;;5054159;28;20446;-80
2022/03/21 10:00:49;;;;;;;19.03;17.03;;;;;;;;;;5051134;28;20956;-79
2022/03/21 10:03:16;;;;;;;20.47;18.37;;;;;;;;;;5052822;28;20527;-82
2022/03/21 10:05:46;;;;;;;19.37;17.37;;;;;;;;;;5053226;28;20481;-78
2022/03/21 10:08:22;;;;;;;20.43;18.33;;;;;;;;;;5056684;28;20912;-78
2022/03/21 10:10:56;;;;;;;20.23;18.03;;;;;;;;;;5064580;28;20519;-79
2022/03/21 10:13:25;;;;;;;21.07;18.00;;;;;;;;;;5055110;28;20465;-79
2022/03/21 10:16:06;;;;;;;19.60;17.70;;;;;;;;;;5063097;28;20822;-81
2022/03/21 10:18:33;;;;;;;20.40;18.30;;;;;;;;;;5063030;28;20449;-78
2022/03/21 10:21:11;;;;;;;27.80;18.30;;;;;;;;;;5060916;28;20518;-79
2022/03/21 10:23:38;;;;;;;19.57;17.73;;;;;;;;;;5046771;28;20502;-80
2022/03/21 10:26:24;;;;;;;20.23;18.23;;;;;;;;;;5055176;28;20456;-79
2022/03/21 10:28:52;;;;;;;20.10;18.10;;;;;;;;;;5069206;28;20870;-81
2022/03/21 10:31:33;;;;;;;19.13;17.23;;;;;;;;;;5045887;28;20433;-80
2022/03/21 10:34:01;;;;;;;20.70;18.70;;;;;;;;;;5045467;28;20483;-80
2022/03/21 10:36:29;;;;;;;20.03;18.23;;;;;;;;;;5052162;28;20464;-80
2022/03/21 10:39:07;;;;;;;20.03;18.10;;;;;;;;;;5060112;28;20885;-79
2022/03/21 10:41:35;;;;;;;20.77;18.70;;;;;;;;;;5052074;28;20857;-79
2022/03/21 10:44:03;;;;;;;24.00;18.90;;;;;;;;;;5051807;28;20531;-80
2022/03/21 10:46:30;;;;;;;20.93;18.80;;;;;;;;;;5032884;28;20469;-79
2022/03/21 10:49:03;;;;;;;22.00;19.90;;;;;;;;;;5053193;28;20450;-79
2022/03/21 10:51:45;;;;;;;20.57;18.57;;;;;;;;;;5067029;28;20440;-80
2022/03/21 10:54:34;;;;;;;21.40;19.20;;;;;;;;;;5062206;28;20551;-78
2022/03/21 10:57:01;;;;;;;24.70;19.03;;;;;;;;;;5046183;28;20437;-81
2022/03/21 10:59:28;;;;;;;25.40;19.20;;;;;;;;;;5048943;28;20452;-79
2022/03/21 11:02:10;;;;;;;21.43;19.23;;;;;;;;;;5053209;28;21114;-79
2022/03/21 11:04:38;;;;;;;20.90;18.57;;;;;;;;;;5054133;28;20446;-80
2022/03/21 11:07:05;;;;;;;21.20;19.00;;;;;;;;;;5053262;28;20458;-80
2022/03/21 11:09:36;;;;;;;22.73;20.37;;;;;;;;;;5052849;28;20960;-80
2022/03/21 11:12:03;;;;;;;21.70;19.47;;;;;;;;;;5051819;28;20441;-79
2022/03/21 11:14:31;;;;;;;23.73;21.40;;;;;;;;;;5049346;28;20488;-79
2022/03/21 11:16:59;;;;;;;20.87;18.87;;;;;;;;;;5055068;28;20445;-79
2022/03/21 11:19:26;;;;;;;25.10;19.87;;;;;;;;;;5056605;28;20445;-80
2022/03/21 11:21:54;;;;;;;22.17;19.97;;;;;;;;;;5057385;28;20496;-80
2022/03/21 11:24:21;;;;;;;22.13;20.03;;;;;;;;;;5061439;28;20464;-80
2022/03/21 11:26:55;;;;;;;22.50;20.20;;;;;;;;;;5061861;28;20516;-80
2022/03/21 11:29:31;;;;;;;21.47;19.37;;;;;;;;;;5051401;28;20952;-80
2022/03/21 11:32:03;;;;;;;22.77;20.40;;;;;;;;;;5037119;28;20418;-78
2022/03/21 11:34:40;;;;;;;21.43;19.23;;;;;;;;;;5046024;28;20461;-78
2022/03/21 11:37:07;;;;;;;22.33;20.03;;;;;;;;;;5043164;28;20453;-81
2022/03/21 11:39:34;;;;;;;21.53;19.23;;;;;;;;;;5051280;28;20864;-81
2022/03/21 11:42:06;;;;;;;21.40;19.10;;;;;;;;;;5048573;28;20454;-80
2022/03/21 11:44:33;;;;;;;21.93;19.67;;;;;;;;;;5056307;28;20865;-78
2022/03/21 11:47:21;;;;;;;20.80;18.60;;;;;;;;;;5054861;28;20494;-79
2022/03/21 11:49:48;;;;;;;21.40;19.17;;;;;;;;;;5055543;28;20434;-80
2022/03/21 11:52:15;;;;;;;20.63;18.63;;;;;;;;;;5053621;28;20453;-79
2022/03/21 11:54:43;;;;;;;20.43;18.33;;;;;;;;;;5049500;28;20489;-81
2022/03/21 11:57:12;;;;;;;21.87;19.53;;;;;;;;;;5055311;28;20441;-81
2022/03/21 11:59:49;;;;;;;21.17;18.80;;;;;;;;;;5052307;28;20449;-81
2022/03/21 12:02:35;;;;;;;21.20;19.20;;;;;;;;;;5053984;28;20495;-82
2022/03/21 12:05:03;;;;;;;21.23;19.03;;;;;;;;;;5037831;28;20549;-80
2022/03/21 12:07:31;;;;;;;20.97;18.97;;;;;;;;;;5040579;28;20954;-81
2022/03/21 12:09:58;;;;;;;19.53;17.70;;;;;;;;;;5031696;28;20450;-79
2022/03/21 12:12:47;;;;;;;19.77;17.90;;;;;;;;;;5035000;28;20477;-81
2022/03/21 12:15:15;;;;;;;20.73;18.63;;;;;;;;;;5049783;28;20523;-79
2022/03/21 12:17:48;;;;;;;19.27;17.37;;;;;;;;;;5056259;28;20453;-78
2022/03/21 12:20:18;;;;;;;18.57;16.73;;;;;;;;;;5053908;28;20817;-79
2022/03/21 12:22:47;;;;;;;19.37;17.47;;;;;;;;;;5065975;28;20509;-83
2022/03/21 12:25:16;;;;;;;19.00;17.03;;;;;;;;;;5072735;28;20425;-81
2022/03/21 12:27:45;;;;;;;18.57;16.87;;;;;;;;;;5065709;28;20449;-83
2022/03/21 12:30:31;;;;;;;20.33;18.33;;;;;;;;;;5072438;28;20438;-81
2022/03/21 12:32:59;;;;;;;19.27;17.27;;;;;;;;;;5054568;28;20443;-80
2022/03/21 12:35:50;;;;;;;20.63;18.60;;;;;;;;;;5047733;28;20473;-80
2022/03/21 12:38:20;;;;;;;17.70;15.93;;;;;;;;;;5034040;28;20471;-80
2022/03/21 12:40:52;;;;;;;19.23;15.30;;;;;;;;;;5037353;28;20442;-80
2022/03/21 12:43:21;;;;;;;17.47;15.77;;;;;;;;;;5037583;28;20973;-80
2022/03/21 12:45:49;;;;;;;18.90;15.57;;;;;;;;;;5036549;28;20438;-80
2022/03/21 12:48:18;;;;;;;17.57;15.87;;;;;;;;;;5035334;28;20462;-80
2022/03/21 12:50:47;;;;;;;16.33;14.80;;;;;;;;;;5035020;28;20485;-78
2022/03/21 12:53:18;;;;;;;16.80;15.00;;;;;;;;;;5035550;28;20450;-80
2022/03/21 12:55:45;;;;;;;16.97;15.17;;;;;;;;;;5035574;28;21039;-81
2022/03/21 12:58:13;;;;;;;17.83;15.93;;;;;;;;;;5035183;28;20427;-80
2022/03/21 13:00:44;;;;;;;16.30;14.63;;;;;;;;;;5035269;28;20479;-80
2022/03/21 13:03:12;;;;;;;16.77;15.07;;;;;;;;;;5034747;28;20474;-79
2022/03/21 13:11:23;;;;;;;17.10;15.30;;;;;;;;;;5055304;28;20523;-79
2022/03/21 13:13:53;;;;;;;15.47;13.93;;;;;;;;;;5055144;28;20468;-79
2022/03/21 13:16:21;;;;;;;21.00;15.63;;;;;;;;;;5054827;28;20474;-81
2022/03/21 13:18:49;;;;;;;15.57;13.70;;;;;;;;;;5054755;28;20457;-79
2022/03/21 13:21:18;;;;;;;17.10;15.50;;;;;;;;;;5054616;28;20461;-79
2022/03/21 13:23:45;;;;;;;17.90;14.60;;;;;;;;;;5054286;28;20476;-81
2022/03/21 13:26:13;;;;;;;17.10;13.93;;;;;;;;;;5055380;28;20532;-81
2022/03/21 13:28:41;;;;;;;13.43;12.07;;;;;;;;;;5054586;28;20949;-80
2022/03/21 13:31:11;;;;;;;15.07;12.70;;;;;;;;;;5054602;28;20481;-80
2022/03/21 13:33:41;;;;;;;15.33;11.70;;;;;;;;;;5054216;28;20933;-80
2022/03/21 13:36:14;;;;;;;13.40;11.30;;;;;;;;;;5054400;28;20518;-80
2022/03/21 13:38:41;;;;;;;13.87;11.07;;;;;;;;;;5054087;28;20457;-80
2022/03/21 13:41:15;;;;;;;15.90;12.67;;;;;;;;;;5054529;28;20437;-80
2022/03/21 13:43:43;;;;;;;15.13;12.83;;;;;;;;;;5054033;28;20454;-79
2022/03/21 13:46:10;;;;;;;16.47;13.03;;;;;;;;;;5053739;28;20955;-81
2022/03/21 13:48:40;;;;;;;14.30;12.80;;;;;;;;;;5054666;28;20484;-81
2022/03/21 13:51:08;;;;;;;14.50;11.90;;;;;;;;;;5054692;28;20450;-79
2022/03/21 13:53:37;;;;;;;14.60;12.00;;;;;;;;;;5054218;28;20465;-79
2022/03/21 13:56:05;;;;;;;14.93;12.40;;;;;;;;;;5053711;28;21083;-80
2022/03/21 13:58:34;;;;;;;14.63;12.87;;;;;;;;;;5054072;28;20767;-79
2022/03/21 14:01:02;;;;;;;14.77;13.27;;;;;;;;;;5053813;28;20446;-81
2022/03/21 14:03:36;;;;;;;18.33;15.00;;;;;;;;;;5053346;28;20465;-79
2022/03/21 14:06:05;;;;;;;16.30;14.67;;;;;;;;;;5053920;28;20437;-78
2022/03/21 14:08:33;;;;;;;15.57;14.00;;;;;;;;;;5053745;28;20445;-82
2022/03/21 14:11:05;;;;;;;16.60;14.77;;;;;;;;;;5053743;28;20457;-80
2022/03/21 14:13:34;;;;;;;18.23;16.40;;;;;;;;;;5053631;28;20497;-82
2022/03/21 14:16:01;;;;;;;20.37;15.50;;;;;;;;;;5053406;28;20489;-81
2022/03/21 14:18:29;;;;;;;18.03;16.10;;;;;;;;;;5053419;28;20449;-81
2022/03/21 14:20:56;;;;;;;17.50;15.90;;;;;;;;;;5053774;28;20450;-79
2022/03/21 14:23:25;;;;;;;17.43;15.60;;;;;;;;;;5053302;28;20701;-84
2022/03/21 14:28:37;;;;;;;17.90;16.03;;;;;;;;;;5053030;28;20508;-80
2022/03/21 14:31:04;;;;;;;18.37;16.57;;;;;;;;;;5053232;28;20453;-79
2022/03/21 14:33:31;;;;;;;18.50;16.53;;;;;;;;;;5052088;28;20552;-81
2022/03/21 14:35:58;;;;;;;17.13;15.50;;;;;;;;;;5052648;28;20484;-80
2022/03/21 14:38:27;;;;;;;17.87;16.13;;;;;;;;;;5053928;28;20515;-80
2022/03/21 14:40:54;;;;;;;17.73;15.87;;;;;;;;;;5055959;28;20426;-80
2022/03/21 14:43:25;;;;;;;18.13;16.33;;;;;;;;;;5053420;28;20953;-81
2022/03/21 14:45:52;;;;;;;16.63;15.03;;;;;;;;;;5053020;28;20433;-78
2022/03/21 14:48:20;;;;;;;17.03;15.00;;;;;;;;;;5052521;28;20449;-79